Time;durP1;ratioP1;P1;durP2;ratioP2;P2;SDS_P1;SDS_P2;PMS_P1;PMS_P2;Temp;Humidity;BMP_temperature;BMP_pressure;BME280_temperature;BME280_humidity;BME280_pressure;Samples;Min_cycle;Max_cycle;Signal;HPM_P1;HPM_P2
2023/04/14 00:02:21;;;;;;;5.00;1.92;;;4.10;99.90;;;;;;5010737;28;20022;-55
2023/04/14 00:04:52;;;;;;;5.88;2.15;;;4.00;99.90;;;;;;5010781;28;20101;-54
2023/04/14 00:07:17;;;;;;;6.90;1.90;;;3.90;99.90;;;;;;5010725;28;20110;-54
2023/04/14 00:09:43;;;;;;;4.95;2.15;;;3.90;99.90;;;;;;5010608;28;20604;-51
2023/04/14 00:12:09;;;;;;;4.50;1.73;;;3.90;99.90;;;;;;5010292;28;20105;-51
2023/04/14 00:14:34;;;;;;;4.20;2.00;;;3.90;99.90;;;;;;5010663;28;20033;-54
2023/04/14 00:17:00;;;;;;;5.15;1.88;;;3.90;99.90;;;;;;5010768;28;20072;-53
2023/04/14 00:19:26;;;;;;;5.40;1.80;;;3.80;99.90;;;;;;5010529;28;20397;-54
2023/04/14 00:21:51;;;;;;;4.78;2.13;;;3.70;99.90;;;;;;5010359;28;20026;-54
2023/04/14 00:24:17;;;;;;;4.55;2.10;;;3.70;99.90;;;;;;5010457;28;20037;-53
2023/04/14 00:26:42;;;;;;;7.07;2.10;;;3.70;99.90;;;;;;5010342;28;20037;-52
2023/04/14 00:29:08;;;;;;;4.47;1.90;;;3.60;99.90;;;;;;5010336;28;20038;-50
2023/04/14 00:31:34;;;;;;;6.28;2.10;;;3.60;99.90;;;;;;5010617;28;20377;-53
2023/04/14 00:34:00;;;;;;;6.53;1.90;;;3.60;99.90;;;;;;5010900;28;20026;-54
2023/04/14 00:36:25;;;;;;;6.70;2.22;;;3.70;99.90;;;;;;5013823;28;20473;-54
2023/04/14 00:38:51;;;;;;;4.80;2.15;;;3.60;99.90;;;;;;5014273;28;20029;-51
2023/04/14 00:41:17;;;;;;;4.78;2.38;;;3.60;99.90;;;;;;5014143;28;20588;-53
2023/04/14 00:43:42;;;;;;;5.03;1.90;;;3.70;99.90;;;;;;5013794;28;20037;-54
2023/04/14 00:46:08;;;;;;;4.20;1.92;;;3.60;99.90;;;;;;5013949;28;20037;-52
2023/04/14 00:48:34;;;;;;;7.07;2.70;;;3.60;99.90;;;;;;5014010;28;20041;-50
2023/04/14 00:51:00;;;;;;;5.18;2.00;;;3.60;99.90;;;;;;5013984;28;20488;-53
2023/04/14 00:53:27;;;;;;;8.23;2.95;;;3.70;99.90;;;;;;5013907;28;20091;-54
2023/04/14 00:55:53;;;;;;;9.07;3.08;;;3.70;99.90;;;;;;5013849;28;20040;-53
2023/04/14 00:58:18;;;;;;;6.70;2.80;;;3.70;99.90;;;;;;5013548;28;20042;-53
2023/04/14 01:00:45;;;;;;;8.77;3.20;;;3.80;99.90;;;;;;5013813;28;20085;-52
2023/04/14 01:03:11;;;;;;;7.13;3.08;;;3.90;99.90;;;;;;5013957;28;20022;-53
2023/04/14 01:05:36;;;;;;;7.20;3.45;;;3.80;99.90;;;;;;5013587;28;20029;-54
2023/04/14 01:08:03;;;;;;;6.97;2.70;;;3.80;99.90;;;;;;5013623;28;20038;-53
2023/04/14 01:10:36;;;;;;;8.25;2.83;;;3.90;99.90;;;;;;5013479;28;20033;-53
2023/04/14 01:13:50;;;;;;;10.63;2.78;;;3.80;99.90;;;;;;5013654;28;20045;-51
2023/04/14 01:16:30;;;;;;;8.55;2.53;;;3.90;99.90;;;;;;5013538;28;20485;-52
2023/04/14 01:19:11;;;;;;;;;;;3.90;99.90;;;;;;5013993;28;20025;-54
2023/04/14 01:21:41;;;;;;;8.77;2.47;;;4.00;99.90;;;;;;5013522;28;19905;-53
2023/04/14 01:24:15;;;;;;;5.47;2.40;;;4.00;99.90;;;;;;5013343;28;20108;-51
2023/04/14 01:26:42;;;;;;;7.07;3.08;;;4.10;99.90;;;;;;5013023;28;20029;-51
2023/04/14 01:29:35;;;;;;;9.18;2.20;;;4.10;99.90;;;;;;5012853;28;20492;-52
2023/04/14 01:32:13;;;;;;;6.10;2.00;;;4.10;99.90;;;;;;5013316;28;20022;-50
2023/04/14 01:34:54;;;;;;;5.88;2.22;;;4.10;99.90;;;;;;5013248;28;20101;-52
2023/04/14 01:37:33;;;;;;;6.25;2.00;;;4.10;99.90;;;;;;5013513;28;20101;-53
2023/04/14 01:40:04;;;;;;;5.50;2.08;;;4.10;99.90;;;;;;5013490;28;20029;-55
2023/04/14 01:42:34;;;;;;;8.90;1.80;;;4.10;99.90;;;;;;5013159;28;20168;-52
2023/04/14 01:45:09;;;;;;;5.03;1.80;;;4.10;99.90;;;;;;5013021;28;20034;-52
2023/04/14 01:47:36;;;;;;;6.57;1.98;;;4.10;99.90;;;;;;5012362;28;20089;-51
2023/04/14 01:50:05;;;;;;;10.45;1.75;;;4.20;99.90;;;;;;5012789;28;20041;-52
2023/04/14 01:52:32;;;;;;;7.28;1.90;;;4.20;99.90;;;;;;5013028;28;20101;-51
2023/04/14 01:55:00;;;;;;;8.35;2.33;;;4.20;99.90;;;;;;5013119;28;20045;-52
2023/04/14 01:57:27;;;;;;;5.72;1.70;;;4.30;99.90;;;;;;5011819;28;20050;-52
2023/04/14 01:59:56;;;;;;;6.43;1.95;;;4.40;99.90;;;;;;5012161;28;20029;-51
2023/04/14 02:02:23;;;;;;;5.73;1.97;;;4.50;99.90;;;;;;5011717;28;20026;-53
2023/04/14 02:04:49;;;;;;;8.55;1.95;;;4.50;99.90;;;;;;5011194;28;20313;-53
2023/04/14 02:07:17;;;;;;;8.07;1.70;;;4.70;99.90;;;;;;5012448;28;20068;-52
2023/04/14 02:09:44;;;;;;;13.00;1.48;;;4.70;99.90;;;;;;5012258;28;20042;-51
2023/04/14 02:12:11;;;;;;;10.20;1.20;;;4.90;99.90;;;;;;5012291;28;20022;-51
2023/04/14 02:14:40;;;;;;;10.43;2.03;;;5.10;99.90;;;;;;5012376;28;20025;-53
2023/04/14 02:17:08;;;;;;;9.00;1.90;;;5.20;99.90;;;;;;5011936;28;20021;-55
2023/04/14 02:19:35;;;;;;;9.25;1.73;;;5.40;99.90;;;;;;5012256;28;20033;-53
2023/04/14 02:22:02;;;;;;;9.50;1.60;;;5.50;99.90;;;;;;5012417;28;20022;-53
2023/04/14 02:24:28;;;;;;;11.93;1.70;;;5.70;99.90;;;;;;5012195;28;20033;-51
2023/04/14 02:27:17;;;;;;;11.88;1.95;;;5.70;99.90;;;;;;5011912;28;20026;-54
2023/04/14 02:29:46;;;;;;;;;;;5.80;99.90;;;;;;5005601;28;20042;-54
2023/04/14 02:32:18;;;;;;;10.95;1.63;;;5.80;99.90;;;;;;5012179;28;19909;-54
2023/04/14 02:34:59;;;;;;;12.10;1.95;;;5.80;99.90;;;;;;5011868;28;20018;-53
2023/04/14 02:37:30;;;;;;;19.48;2.35;;;5.90;99.90;;;;;;5011942;28;20480;-53
2023/04/14 02:40:02;;;;;;;10.23;1.85;;;5.80;99.90;;;;;;5011747;28;20100;-51
2023/04/14 02:42:29;;;;;;;16.50;2.00;;;5.80;99.90;;;;;;5011385;28;20037;-51
2023/04/14 02:45:05;;;;;;;11.88;2.20;;;5.80;99.90;;;;;;5011733;28;20465;-54
2023/04/14 02:47:37;;;;;;;14.35;1.73;;;5.80;99.90;;;;;;5011864;28;20063;-54
2023/04/14 02:50:05;;;;;;;13.68;1.98;;;5.90;99.90;;;;;;5011274;28;20026;-53
2023/04/14 02:52:32;;;;;;;10.43;1.92;;;6.00;99.90;;;;;;5011949;28;20018;-53
2023/04/14 02:55:00;;;;;;;14.38;2.50;;;6.00;99.90;;;;;;5012075;28;20030;-53
2023/04/14 02:57:26;;;;;;;21.85;2.15;;;6.00;99.90;;;;;;5010735;28;20539;-54
2023/04/14 02:59:53;;;;;;;11.45;1.88;;;6.10;99.90;;;;;;5011433;28;20088;-54
2023/04/14 03:02:20;;;;;;;11.27;1.50;;;6.10;99.90;;;;;;5010364;28;20172;-54
2023/04/14 03:04:45;;;;;;;12.80;1.67;;;6.10;99.90;;;;;;5009163;28;20026;-54
2023/04/14 03:07:13;;;;;;;16.80;1.92;;;6.10;99.90;;;;;;5011192;28;20022;-54
2023/04/14 03:09:39;;;;;;;14.57;1.67;;;6.00;99.90;;;;;;5011403;28;20048;-54
2023/04/14 03:12:06;;;;;;;18.50;2.33;;;6.10;99.90;;;;;;5011354;28;20025;-54
2023/04/14 03:14:34;;;;;;;13.95;2.40;;;6.00;99.90;;;;;;5011258;28;20499;-53
2023/04/14 03:17:00;;;;;;;15.52;2.08;;;6.10;99.90;;;;;;5011062;28;20057;-54
2023/04/14 03:19:28;;;;;;;18.58;1.98;;;6.10;99.90;;;;;;5011055;28;20060;-54
2023/04/14 03:21:55;;;;;;;23.98;2.13;;;6.10;99.90;;;;;;5011400;28;20032;-54
2023/04/14 03:24:29;;;;;;;13.77;1.75;;;6.20;99.90;;;;;;5011052;28;20033;-54
2023/04/14 03:27:07;;;;;;;9.80;1.60;;;6.20;99.90;;;;;;5010865;28;20025;-52
2023/04/14 03:29:44;;;;;;;8.63;1.83;;;6.20;99.90;;;;;;5010909;28;20052;-53
2023/04/14 03:32:10;;;;;;;19.85;4.32;;;6.10;99.90;;;;;;5011272;28;20109;-51
2023/04/14 03:34:45;;;;;;;18.80;2.35;;;6.20;99.90;;;;;;5011030;28;20029;-52
2023/04/14 03:37:15;;;;;;;7.50;1.55;;;6.20;99.90;;;;;;5011142;28;20075;-51
2023/04/14 03:39:42;;;;;;;15.02;2.42;;;6.20;99.90;;;;;;5010676;28;20503;-52
2023/04/14 03:42:10;;;;;;;14.85;2.05;;;6.30;99.90;;;;;;5010748;28;20062;-51
2023/04/14 03:44:37;;;;;;;8.77;1.83;;;6.40;99.90;;;;;;5011133;28;20026;-52
2023/04/14 03:47:06;;;;;;;13.98;2.30;;;6.40;99.90;;;;;;5010756;28;20022;-54
2023/04/14 03:49:35;;;;;;;12.10;2.00;;;6.40;99.90;;;;;;5010789;28;20080;-51
2023/04/14 03:52:05;;;;;;;9.23;1.40;;;6.40;99.90;;;;;;5010524;28;20022;-52
2023/04/14 03:54:33;;;;;;;10.75;1.85;;;6.30;99.90;;;;;;5010691;28;20155;-54
2023/04/14 03:57:03;;;;;;;11.50;2.13;;;6.30;99.90;;;;;;5010476;28;20380;-53
2023/04/14 03:59:30;;;;;;;15.15;1.63;;;6.30;99.90;;;;;;5010795;28;20469;-52
2023/04/14 04:01:56;;;;;;;21.38;2.50;;;6.30;99.90;;;;;;5010345;28;20476;-54
2023/04/14 04:04:25;;;;;;;14.07;1.90;;;6.30;99.90;;;;;;5009571;28;20064;-53
2023/04/14 04:06:52;;;;;;;14.50;1.92;;;6.30;99.90;;;;;;5010532;28;20102;-53
2023/04/14 04:09:19;;;;;;;24.67;2.78;;;6.40;99.90;;;;;;5011317;28;20092;-54
2023/04/14 04:11:46;;;;;;;16.70;2.60;;;6.30;99.90;;;;;;5013331;28;20068;-52
2023/04/14 04:14:13;;;;;;;11.77;1.63;;;6.30;99.90;;;;;;5014895;28;20026;-51
2023/04/14 04:16:41;;;;;;;21.75;2.22;;;6.30;99.90;;;;;;5014829;28;20030;-51
2023/04/14 04:19:09;;;;;;;13.52;1.88;;;6.30;99.90;;;;;;5014613;28;20030;-52
2023/04/14 04:21:39;;;;;;;15.68;1.80;;;6.30;99.90;;;;;;5014566;28;20038;-51
2023/04/14 04:24:05;;;;;;;16.20;2.80;;;6.30;99.90;;;;;;5014247;28;20033;-54
2023/04/14 04:26:31;;;;;;;15.15;1.83;;;6.30;99.90;;;;;;5014601;28;20030;-54
2023/04/14 04:28:57;;;;;;;15.52;2.15;;;6.40;99.90;;;;;;5014583;28;20026;-50
2023/04/14 04:31:23;;;;;;;14.15;2.58;;;6.50;99.90;;;;;;5014281;28;20025;-52
2023/04/14 04:33:50;;;;;;;17.48;2.95;;;6.50;99.90;;;;;;5014497;28;20029;-53
2023/04/14 04:36:17;;;;;;;13.48;2.25;;;6.50;99.90;;;;;;5014185;28;20071;-53
2023/04/14 04:38:43;;;;;;;18.73;1.77;;;6.50;99.90;;;;;;5014140;28;20477;-54
2023/04/14 04:41:26;;;;;;;10.90;1.90;;;6.50;99.90;;;;;;5014110;28;20041;-53
2023/04/14 04:43:52;;;;;;;17.35;2.42;;;6.50;99.90;;;;;;5013939;28;20060;-55
2023/04/14 04:46:18;;;;;;;17.95;2.30;;;6.50;99.90;;;;;;5014135;28;20384;-53
2023/04/14 04:48:44;;;;;;;11.88;1.73;;;6.50;99.90;;;;;;5014070;28;20163;-51
2023/04/14 04:51:09;;;;;;;14.85;2.42;;;6.60;99.90;;;;;;5014428;28;20495;-54
2023/04/14 04:53:35;;;;;;;19.98;2.20;;;6.60;99.90;;;;;;5014821;28;20388;-55
2023/04/14 04:56:01;;;;;;;14.88;2.08;;;6.60;99.90;;;;;;5014661;28;20472;-54
2023/04/14 04:58:26;;;;;;;14.38;2.10;;;6.60;99.90;;;;;;5013618;28;20073;-55
2023/04/14 05:00:53;;;;;;;18.27;2.97;;;6.70;99.90;;;;;;5013713;28;20018;-53
2023/04/14 05:03:19;;;;;;;11.07;2.00;;;6.60;99.90;;;;;;5013612;28;20113;-50
2023/04/14 05:05:44;;;;;;;16.05;1.88;;;6.70;99.90;;;;;;5013583;28;20100;-53
2023/04/14 05:08:10;;;;;;;14.73;2.33;;;6.70;99.90;;;;;;5013619;28;20029;-54
2023/04/14 05:10:35;;;;;;;15.18;2.30;;;6.70;99.90;;;;;;5013605;28;20040;-52
2023/04/14 05:13:01;;;;;;;13.50;2.15;;;6.70;99.90;;;;;;5013470;28;20021;-54
2023/04/14 05:15:27;;;;;;;18.10;2.38;;;6.80;99.90;;;;;;5013462;28;20034;-54
2023/04/14 05:17:52;;;;;;;19.20;2.35;;;6.90;99.90;;;;;;5013508;28;20030;-54
2023/04/14 05:20:18;;;;;;;10.50;2.22;;;7.00;99.90;;;;;;5013021;28;20036;-52
2023/04/14 05:22:43;;;;;;;14.43;2.35;;;7.00;99.90;;;;;;5012779;28;20018;-55
2023/04/14 05:25:09;;;;;;;17.63;2.92;;;7.00;99.90;;;;;;5013536;28;20037;-53
2023/04/14 05:27:35;;;;;;;14.55;2.05;;;7.00;99.90;;;;;;5012928;28;20400;-54
2023/04/14 05:30:01;;;;;;;21.00;2.33;;;7.10;99.90;;;;;;5001485;28;20034;-54
2023/04/14 05:32:27;;;;;;;16.08;2.90;;;7.10;99.90;;;;;;5013289;28;20056;-52
2023/04/14 05:34:52;;;;;;;15.50;2.45;;;7.20;99.90;;;;;;5013114;28;20022;-55
2023/04/14 05:37:18;;;;;;;16.60;2.38;;;7.20;99.90;;;;;;5013513;28;20022;-55
2023/04/14 05:39:44;;;;;;;15.95;2.00;;;7.30;99.90;;;;;;5013236;28;20097;-55
2023/04/14 05:42:10;;;;;;;13.80;2.00;;;7.30;99.90;;;;;;5012808;28;20061;-54
2023/04/14 05:44:35;;;;;;;18.40;2.22;;;7.40;99.90;;;;;;5012885;28;20041;-55
2023/04/14 05:47:01;;;;;;;13.10;2.20;;;7.40;99.90;;;;;;5011629;28;20018;-55
2023/04/14 05:49:26;;;;;;;14.75;2.05;;;7.50;99.90;;;;;;5012447;28;20038;-55
2023/04/14 05:51:55;;;;;;;19.27;2.13;;;7.50;99.90;;;;;;5012640;28;20014;-56
2023/04/14 05:54:21;;;;;;;12.73;2.33;;;7.50;99.90;;;;;;5012939;28;20036;-55
2023/04/14 05:56:46;;;;;;;10.00;1.52;;;7.60;99.90;;;;;;5011093;28;20260;-53
2023/04/14 05:59:12;;;;;;;12.65;1.70;;;7.60;99.90;;;;;;5012503;28;20049;-55
2023/04/14 06:01:38;;;;;;;13.48;1.60;;;7.70;99.90;;;;;;5012474;28;20046;-55
2023/04/14 06:04:03;;;;;;;10.55;1.85;;;7.80;99.90;;;;;;5012714;28;20026;-55
2023/04/14 06:06:31;;;;;;;12.23;1.70;;;7.90;99.90;;;;;;5012323;28;20053;-55
2023/04/14 06:08:57;;;;;;;14.50;2.45;;;7.90;99.90;;;;;;5012360;28;20041;-55
2023/04/14 06:11:22;;;;;;;21.02;2.90;;;8.00;99.90;;;;;;5012227;28;20026;-55
2023/04/14 06:13:49;;;;;;;14.50;1.98;;;8.10;99.90;;;;;;5011042;28;20068;-56
2023/04/14 06:16:14;;;;;;;11.35;2.05;;;8.10;99.90;;;;;;5012435;28;20461;-55
2023/04/14 06:18:40;;;;;;;10.95;2.17;;;8.20;99.90;;;;;;5012639;28;20022;-55
2023/04/14 06:21:06;;;;;;;14.45;2.17;;;8.20;99.90;;;;;;5012369;28;20544;-55
2023/04/14 06:23:32;;;;;;;15.32;1.67;;;8.20;99.90;;;;;;5011943;28;20029;-56
2023/04/14 06:25:57;;;;;;;13.35;1.65;;;8.30;99.90;;;;;;5011967;28;20026;-54
2023/04/14 06:28:24;;;;;;;9.90;1.80;;;8.30;99.90;;;;;;5011995;28;20026;-55
2023/04/14 06:30:51;;;;;;;11.52;1.98;;;8.40;99.90;;;;;;5011813;28;20054;-55
2023/04/14 06:33:17;;;;;;;8.35;1.85;;;8.20;99.90;;;;;;5011531;28;20107;-54
2023/04/14 06:35:43;;;;;;;8.80;1.88;;;8.10;99.90;;;;;;5012076;28;20101;-55
2023/04/14 06:38:09;;;;;;;8.50;1.83;;;8.10;99.90;;;;;;5011582;28;20033;-55
2023/04/14 06:40:35;;;;;;;13.35;1.83;;;8.10;99.90;;;;;;5011699;28;20030;-55
2023/04/14 06:43:00;;;;;;;11.68;1.90;;;8.20;99.90;;;;;;5011304;28;20025;-56
2023/04/14 06:45:26;;;;;;;6.85;1.55;;;8.20;99.90;;;;;;5011565;28;20113;-56
2023/04/14 06:47:51;;;;;;;12.38;1.50;;;8.30;99.90;;;;;;5011496;28;20026;-55
2023/04/14 06:50:17;;;;;;;12.90;1.92;;;8.40;99.90;;;;;;5011738;28;20030;-56
2023/04/14 06:52:43;;;;;;;10.70;1.92;;;8.60;99.90;;;;;;5011503;28;20721;-55
2023/04/14 06:55:08;;;;;;;8.68;1.40;;;8.80;99.90;;;;;;5011552;28;20135;-55
2023/04/14 06:57:34;;;;;;;11.57;1.77;;;8.90;99.90;;;;;;5011229;28;20053;-56
2023/04/14 07:00:00;;;;;;;8.52;1.50;;;9.30;99.90;;;;;;5011175;28;20033;-54
2023/04/14 07:02:27;;;;;;;7.55;2.10;;;9.60;99.90;;;;;;5011147;28;20397;-55
2023/04/14 07:04:53;;;;;;;11.50;1.65;;;9.80;99.90;;;;;;5011460;28;20030;-56
2023/04/14 07:07:18;;;;;;;9.63;1.52;;;10.00;99.90;;;;;;5011309;28;20454;-55
2023/04/14 07:09:44;;;;;;;9.23;1.75;;;10.10;99.90;;;;;;5009317;28;20042;-55
2023/04/14 07:12:14;;;;;;;9.23;1.90;;;10.10;99.90;;;;;;5010863;28;20432;-53
2023/04/14 07:14:40;;;;;;;7.60;1.60;;;10.30;99.90;;;;;;5011308;28;20096;-54
2023/04/14 07:17:06;;;;;;;8.07;2.75;;;10.30;99.90;;;;;;5010009;28;20022;-56
2023/04/14 07:19:31;;;;;;;13.90;2.20;;;10.40;99.90;;;;;;5011082;28;20040;-55
2023/04/14 07:21:57;;;;;;;8.77;1.60;;;10.20;99.90;;;;;;5011282;28;20025;-56
2023/04/14 07:24:22;;;;;;;14.80;2.25;;;10.30;99.90;;;;;;5011087;28;20029;-55
2023/04/14 07:26:48;;;;;;;8.50;1.40;;;10.50;99.90;;;;;;5010857;28;20030;-55
2023/04/14 07:29:14;;;;;;;7.88;1.55;;;10.80;99.90;;;;;;5010637;28;20374;-55
2023/04/14 07:31:40;;;;;;;10.15;1.75;;;11.10;99.90;;;;;;5010632;28;20021;-53
2023/04/14 07:34:06;;;;;;;9.30;1.67;;;11.50;99.90;;;;;;5010914;28;20030;-55
2023/04/14 07:36:32;;;;;;;8.40;1.60;;;11.60;99.90;;;;;;5010760;28;20021;-56
2023/04/14 07:38:58;;;;;;;10.73;1.55;;;11.50;99.90;;;;;;5011021;28;20018;-56
2023/04/14 07:41:25;;;;;;;13.80;2.08;;;11.40;99.90;;;;;;5010414;28;20673;-55
2023/04/14 07:43:54;;;;;;;10.85;1.52;;;11.10;99.90;;;;;;5008395;28;20026;-55
2023/04/14 07:46:20;;;;;;;9.10;1.85;;;10.70;99.90;;;;;;5010573;28;20072;-54
2023/04/14 07:48:46;;;;;;;9.40;1.35;;;10.50;99.90;;;;;;5010425;28;20034;-55
2023/04/14 07:51:12;;;;;;;6.53;1.20;;;10.40;99.90;;;;;;5010583;28;20056;-55
2023/04/14 07:53:41;;;;;;;7.65;1.50;;;10.50;99.90;;;;;;5010697;28;20041;-54
2023/04/14 07:56:07;;;;;;;12.77;1.50;;;10.50;99.90;;;;;;5010450;28;20038;-58
2023/04/14 07:58:33;;;;;;;12.13;1.63;;;10.60;99.90;;;;;;5010527;28;20042;-58
2023/04/14 08:00:59;;;;;;;9.13;1.75;;;10.80;99.90;;;;;;5010916;28;20033;-59
2023/04/14 08:03:24;;;;;;;8.55;1.00;;;10.80;99.90;;;;;;5009127;28;20040;-57
2023/04/14 08:05:51;;;;;;;8.77;1.25;;;10.90;99.90;;;;;;5011036;28;20485;-59
2023/04/14 08:08:17;;;;;;;14.70;1.17;;;10.80;99.90;;;;;;5009082;28;20026;-59
2023/04/14 08:10:42;;;;;;;8.60;1.20;;;10.70;99.90;;;;;;5007872;28;20037;-59
2023/04/14 08:13:08;;;;;;;5.30;0.98;;;10.50;99.90;;;;;;5010608;28;20033;-59
2023/04/14 08:15:34;;;;;;;7.85;1.20;;;10.60;99.90;;;;;;5010589;28;20385;-60
2023/04/14 08:18:00;;;;;;;10.85;1.33;;;10.60;99.90;;;;;;5010687;28;20024;-59
2023/04/14 08:20:26;;;;;;;12.57;1.20;;;10.90;99.90;;;;;;5010731;28;20033;-60
2023/04/14 08:22:52;;;;;;;6.00;1.10;;;10.90;99.90;;;;;;5010552;28;20374;-56
2023/04/14 08:25:17;;;;;;;8.40;1.27;;;11.00;99.90;;;;;;5009996;28;20022;-58
2023/04/14 08:27:43;;;;;;;8.80;1.40;;;11.40;99.90;;;;;;5010132;28;20037;-61
2023/04/14 08:30:10;;;;;;;12.50;1.92;;;11.40;99.90;;;;;;5010197;28;20052;-58
2023/04/14 08:32:35;;;;;;;8.73;1.30;;;11.40;99.90;;;;;;5010120;28;20030;-58
2023/04/14 08:35:01;;;;;;;4.93;1.02;;;11.30;99.90;;;;;;5010150;28;20101;-58
2023/04/14 08:37:27;;;;;;;6.40;1.20;;;11.40;99.90;;;;;;5010276;28;20022;-56
2023/04/14 08:39:52;;;;;;;8.55;1.80;;;11.30;99.90;;;;;;5009717;28;20026;-58
2023/04/14 08:42:20;;;;;;;9.75;2.00;;;11.10;99.90;;;;;;5010483;28;20026;-59
2023/04/14 08:44:46;;;;;;;8.68;1.50;;;11.20;99.90;;;;;;4992417;28;20033;-59
2023/04/14 08:47:13;;;;;;;9.23;1.33;;;11.20;99.90;;;;;;5010340;28;20100;-59
2023/04/14 08:49:51;;;;;;;5.00;1.38;;;11.30;99.90;;;;;;5008062;28;20062;-59
2023/04/14 08:52:20;;;;;;;9.60;1.50;;;11.10;99.90;;;;;;5009694;28;20045;-59
2023/04/14 08:54:53;;;;;;;7.60;1.48;;;11.00;99.90;;;;;;5010246;28;20032;-59
2023/04/14 08:57:20;;;;;;;11.10;1.42;;;11.00;99.90;;;;;;5013937;28;20092;-59
2023/04/14 08:59:47;;;;;;;7.18;1.52;;;10.90;99.90;;;;;;5013914;28;20037;-59
2023/04/14 09:02:13;;;;;;;15.40;1.88;;;10.70;99.90;;;;;;5013307;28;20473;-59
2023/04/14 09:04:39;;;;;;;7.15;1.50;;;10.70;99.90;;;;;;5013658;28;20056;-59
2023/04/14 09:07:06;;;;;;;6.78;1.60;;;10.60;99.90;;;;;;5008028;28;20537;-60
2023/04/14 09:09:32;;;;;;;9.13;1.85;;;10.50;99.90;;;;;;5005052;28;20034;-60
2023/04/14 09:11:57;;;;;;;8.07;1.30;;;10.40;99.90;;;;;;5013455;28;20101;-59
2023/04/14 09:14:23;;;;;;;8.10;1.17;;;10.30;99.90;;;;;;5013693;28;20029;-59
2023/04/14 09:16:52;;;;;;;10.93;1.38;;;10.30;99.90;;;;;;5013919;28;20065;-60
2023/04/14 09:19:20;;;;;;;8.13;1.58;;;10.20;99.90;;;;;;5013473;28;20022;-59
2023/04/14 09:21:45;;;;;;;6.40;1.10;;;10.40;99.90;;;;;;5013291;28;20026;-59
2023/04/14 09:24:11;;;;;;;7.53;1.40;;;10.50;99.90;;;;;;5013421;28;20026;-59
2023/04/14 09:26:37;;;;;;;7.40;1.40;;;10.40;99.90;;;;;;5013438;28;20030;-59
2023/04/14 09:29:02;;;;;;;12.57;1.50;;;10.30;99.90;;;;;;5012957;28;20120;-59
2023/04/14 09:31:29;;;;;;;7.22;1.30;;;10.10;99.90;;;;;;5013330;28;20087;-59
2023/04/14 09:33:54;;;;;;;9.27;1.38;;;10.00;99.90;;;;;;5013171;28;20030;-59
2023/04/14 09:36:22;;;;;;;15.38;1.70;;;9.80;99.90;;;;;;5012610;28;20084;-59
2023/04/14 09:38:49;;;;;;;8.32;1.40;;;9.70;99.90;;;;;;5012990;28;20034;-59
2023/04/14 09:41:16;;;;;;;6.07;1.30;;;9.60;99.90;;;;;;5012934;28;20034;-59
2023/04/14 09:43:42;;;;;;;13.70;1.80;;;9.50;99.90;;;;;;5012365;28;20089;-59
2023/04/14 09:46:09;;;;;;;7.22;1.55;;;9.50;99.90;;;;;;5012654;28;20022;-58
2023/04/14 09:48:38;;;;;;;8.73;1.55;;;9.40;99.90;;;;;;5013003;28;20072;-58
2023/04/14 09:51:12;;;;;;;6.15;1.55;;;9.20;99.90;;;;;;5012767;28;20386;-59
2023/04/14 09:53:40;;;;;;;5.93;1.40;;;9.20;99.90;;;;;;5009535;28;20037;-59
2023/04/14 09:56:07;;;;;;;7.80;1.30;;;9.20;99.90;;;;;;5012737;28;20026;-58
2023/04/14 09:58:38;;;;;;;7.10;1.20;;;9.30;99.90;;;;;;5012172;28;20046;-59
2023/04/14 10:01:10;;;;;;;4.47;1.08;;;9.30;99.90;;;;;;5012436;28;20030;-58
2023/04/14 10:03:44;;;;;;;9.27;1.13;;;9.30;99.90;;;;;;5012852;28;20030;-58
2023/04/14 10:06:19;;;;;;;5.70;1.00;;;9.20;99.90;;;;;;5011541;28;20056;-58
2023/04/14 10:08:47;;;;;;;6.45;1.42;;;9.10;99.90;;;;;;5011871;28;20041;-59
2023/04/14 10:11:20;;;;;;;5.13;1.00;;;9.10;99.90;;;;;;5012637;28;20171;-58
2023/04/14 10:13:47;;;;;;;6.45;1.50;;;9.00;99.90;;;;;;5011930;28;20026;-59
2023/04/14 10:16:14;;;;;;;6.70;1.50;;;9.00;99.90;;;;;;5012627;28;20026;-58
2023/04/14 10:18:40;;;;;;;5.40;1.63;;;9.00;99.90;;;;;;5011970;28;20036;-58
2023/04/14 10:21:07;;;;;;;3.80;0.82;;;9.00;99.90;;;;;;5012405;28;20018;-58
2023/04/14 10:23:36;;;;;;;6.47;1.10;;;8.90;99.90;;;;;;5011504;28;20038;-57
2023/04/14 10:26:02;;;;;;;7.35;1.10;;;8.90;99.90;;;;;;5012061;28;20052;-59
2023/04/14 10:28:29;;;;;;;3.22;0.85;;;8.90;99.90;;;;;;5011874;28;20021;-60
2023/04/14 10:30:56;;;;;;;3.80;1.00;;;8.90;99.90;;;;;;5011540;28;20144;-58
2023/04/14 10:33:23;;;;;;;3.58;0.90;;;8.90;99.90;;;;;;5011784;28;20441;-59
2023/04/14 10:35:56;;;;;;;6.03;0.90;;;9.00;99.90;;;;;;5012003;28;20032;-59
2023/04/14 10:38:21;;;;;;;6.53;0.98;;;8.90;99.90;;;;;;5005135;28;20419;-59
2023/04/14 10:40:51;;;;;;;3.70;0.70;;;8.90;99.90;;;;;;5006317;28;20026;-58
2023/04/14 10:43:17;;;;;;;3.28;0.77;;;8.80;99.90;;;;;;5010515;28;20492;-59
2023/04/14 10:45:56;;;;;;;5.57;0.80;;;8.70;99.90;;;;;;5012067;28;20029;-59
2023/04/14 10:48:31;;;;;;;4.78;1.10;;;8.60;99.90;;;;;;5011660;28;20388;-59
2023/04/14 10:51:03;;;;;;;2.72;0.90;;;8.60;99.90;;;;;;5003807;28;20042;-59
2023/04/14 10:53:36;;;;;;;3.55;0.98;;;8.60;99.90;;;;;;5010744;28;20038;-61
2023/04/14 10:56:04;;;;;;;2.28;1.00;;;8.70;99.90;;;;;;5011270;28;20101;-61
2023/04/14 10:58:33;;;;;;;7.97;0.90;;;8.90;99.90;;;;;;5011245;28;20049;-59
2023/04/14 11:00:59;;;;;;;4.13;0.80;;;8.90;99.90;;;;;;5011175;28;20409;-59
2023/04/14 11:03:33;;;;;;;2.92;0.75;;;9.00;99.90;;;;;;5011300;28;20492;-59
2023/04/14 11:05:58;;;;;;;3.33;0.60;;;9.10;99.90;;;;;;5009232;28;20037;-59
2023/04/14 11:08:34;;;;;;;3.97;0.90;;;9.20;99.90;;;;;;5011527;28;20111;-58
2023/04/14 11:11:05;;;;;;;3.20;0.80;;;9.20;99.90;;;;;;5004343;28;20029;-58
2023/04/14 11:13:33;;;;;;;3.42;0.80;;;9.20;99.90;;;;;;5011104;28;20025;-61
2023/04/14 11:16:03;;;;;;;2.95;0.77;;;9.10;99.90;;;;;;5011197;28;20126;-60
2023/04/14 11:18:29;;;;;;;4.05;0.88;;;9.20;99.90;;;;;;5010681;28;20030;-58
2023/04/14 11:21:09;;;;;;;3.28;0.68;;;9.20;99.90;;;;;;5010446;28;20076;-60
2023/04/14 11:23:36;;;;;;;5.00;0.80;;;9.40;99.90;;;;;;5011365;28;20103;-59
2023/04/14 11:26:04;;;;;;;4.00;0.80;;;9.30;99.90;;;;;;5010793;28;20022;-60
2023/04/14 11:28:39;;;;;;;5.75;0.60;;;9.30;99.90;;;;;;5010716;28;20485;-60
2023/04/14 11:31:07;;;;;;;4.55;0.60;;;9.30;99.90;;;;;;5007256;28;20544;-59
2023/04/14 11:33:35;;;;;;;3.72;1.25;;;9.20;99.90;;;;;;5010311;28;20060;-61
2023/04/14 11:36:03;;;;;;;2.22;0.57;;;9.30;99.90;;;;;;5010640;28;20071;-59
2023/04/14 11:38:29;;;;;;;4.55;0.90;;;9.40;99.90;;;;;;5011031;28;20072;-60
2023/04/14 11:40:55;;;;;;;2.60;0.75;;;9.50;99.90;;;;;;5011143;28;20026;-60
2023/04/14 11:43:22;;;;;;;0.82;0.60;;;9.70;99.90;;;;;;5010571;28;20395;-59
2023/04/14 11:45:49;;;;;;;1.42;0.75;;;9.90;99.90;;;;;;5011110;28;20084;-60
2023/04/14 11:48:17;;;;;;;4.90;1.05;;;10.50;99.90;;;;;;5010857;28;20116;-60
2023/04/14 11:50:44;;;;;;;4.15;1.13;;;11.20;99.90;;;;;;5010781;28;20543;-61
2023/04/14 11:53:17;;;;;;;6.53;0.90;;;12.20;99.90;;;;;;5010670;28;20484;-60
2023/04/14 11:55:48;;;;;;;3.45;1.02;;;12.80;99.90;;;;;;5010945;28;20476;-61
2023/04/14 11:58:18;;;;;;;4.38;0.70;;;12.60;99.90;;;;;;5010243;28;20042;-59
2023/04/14 12:00:48;;;;;;;3.53;0.77;;;12.50;99.90;;;;;;5009660;28;20045;-60
2023/04/14 12:03:13;;;;;;;2.58;0.60;;;12.70;99.90;;;;;;5006403;28;20022;-60
2023/04/14 12:05:39;;;;;;;3.67;0.80;;;12.80;99.90;;;;;;5009017;28;20374;-60
2023/04/14 12:08:07;;;;;;;4.95;0.90;;;12.60;99.90;;;;;;5010425;28;20033;-59
2023/04/14 12:10:36;;;;;;;3.40;0.70;;;12.10;99.90;;;;;;5008249;28;20025;-59
2023/04/14 12:13:10;;;;;;;5.47;1.13;;;12.00;99.90;;;;;;5006466;28;20022;-58
2023/04/14 12:15:37;;;;;;;4.47;1.00;;;11.60;99.90;;;;;;5018138;28;20052;-59
2023/04/14 12:18:08;;;;;;;2.78;0.70;;;10.90;99.90;;;;;;5009742;28;20050;-60
2023/04/14 12:20:41;;;;;;;3.10;0.70;;;10.90;99.90;;;;;;5010735;28;20033;-59
2023/04/14 12:23:07;;;;;;;4.35;0.80;;;10.80;99.90;;;;;;5004394;28;20118;-59
2023/04/14 12:25:33;;;;;;;5.40;0.90;;;10.70;99.90;;;;;;5019290;28;20050;-59
2023/04/14 12:28:04;;;;;;;4.80;0.75;;;10.80;99.90;;;;;;5010076;28;20025;-60
2023/04/14 12:30:31;;;;;;;2.10;0.68;;;10.60;99.90;;;;;;5007663;28;20033;-59
2023/04/14 12:32:56;;;;;;;3.75;1.00;;;10.50;99.90;;;;;;5013322;28;20105;-60
2023/04/14 12:35:22;;;;;;;4.97;0.82;;;10.30;99.90;;;;;;5007883;28;20113;-60
2023/04/14 12:37:49;;;;;;;4.60;0.90;;;10.40;99.90;;;;;;5010593;28;20083;-48
2023/04/14 12:40:16;;;;;;;4.03;1.20;;;10.40;99.90;;;;;;5012409;28;20034;-50
2023/04/14 12:42:50;;;;;;;5.22;1.17;;;10.40;99.90;;;;;;5014496;28;20389;-48
2023/04/14 12:45:16;;;;;;;6.07;0.90;;;10.50;99.90;;;;;;5013512;28;20025;-48
2023/04/14 12:47:53;;;;;;;4.90;1.00;;;10.30;99.90;;;;;;5013994;28;20083;-50
2023/04/14 12:50:29;;;;;;;4.03;0.93;;;10.50;99.90;;;;;;5013769;28;20034;-52
2023/04/14 12:52:55;;;;;;;8.43;1.13;;;10.50;99.90;;;;;;5012841;28;20342;-50
2023/04/14 12:55:22;;;;;;;7.20;1.40;;;10.50;99.90;;;;;;5013931;28;20477;-48